Latest Weather Observations for Bushy Park

IDT60801

Issued at 8:31 pm EST Thursday 26 May 2016 (issued every 30 minutes, with the page automatically refreshed every 10 minutes)

About weather observations | Map of weather stations | Latest weather observations for TAS | Other Formats
Station Details ID: 095003 Name: BUSHY PARK (BUSHY PARK ESTATES) Lat: -42.71 Lon: 146.90 Height: 27.0 m
Data from the previous 72 hours. | See also: Recent months at Bushy Park
Date/Time
EST
Temp
°C
App
Temp
°C
Dew
Point
Rel
Hum
%
Delta-T
°C
Wind Press
QNH
hPa
Press
MSL
hPa
Rain
since 9 am
mm
Dir
 
Spd
km/h
Gust
km/h
Spd
kts
Gust
kts
26/08:30pm 6.0 3.3 5.6 97 0.2 SW 9 11 5 6 - - 0.0
26/08:00pm 6.7 4.0 5.8 94 0.4 WSW 9 13 5 7 - - 0.0
26/07:30pm 7.1 4.1 6.0 93 0.5 WSW 11 13 6 7 - - 0.0
26/07:00pm 7.3 4.3 6.2 93 0.5 SW 11 13 6 7 - - 0.0
26/06:30pm 7.4 4.5 6.3 93 0.5 WSW 11 13 6 7 - - 0.0
26/06:00pm 7.9 5.1 6.8 93 0.5 SW 11 13 6 7 - - 0.0
26/05:30pm 8.5 6.8 7.5 93 0.5 S 6 11 3 6 - - 0.0
26/05:00pm 8.9 7.0 7.4 90 0.7 SE 7 9 4 5 - - 0.0
26/04:30pm 9.5 8.2 7.6 88 0.9 N 4 7 2 4 - - 0.0
26/04:00pm 10.0 8.8 8.2 88 0.9 SSE 4 9 2 5 - - 0.0
26/03:30pm 10.4 10.0 8.2 86 1.1 CALM 0 0 0 0 - - 0.0
26/03:00pm 10.6 10.1 7.7 82 1.4 CALM 0 0 0 0 - - 0.0
26/02:30pm 10.6 8.7 7.5 81 1.5 N 7 7 4 4 - - 0.0
26/02:00pm 10.6 10.0 7.5 81 1.5 CALM 0 0 0 0 - - 0.0
26/01:30pm 10.5 8.7 7.2 80 1.6 NE 6 7 3 4 - - 0.0
26/01:00pm 10.4 8.4 7.1 80 1.6 N 7 9 4 5 - - 0.0
26/12:30pm 10.2 8.0 6.4 77 1.8 N 7 9 4 5 - - 0.0
26/12:00pm 9.9 7.4 6.5 79 1.6 N 9 11 5 6 - - 0.0
26/11:30am 9.6 7.4 6.2 79 1.6 N 7 11 4 6 - - 0.0
26/11:00am 9.6 7.4 6.4 80 1.5 N 7 11 4 6 - - 0.0
26/10:30am 8.7 6.5 5.4 80 1.5 N 6 7 3 4 - - 0.0
26/10:00am 7.7 6.6 5.0 83 1.2 CALM 0 0 0 0 - - 0.0
26/09:30am 6.8 4.3 5.0 88 0.8 SW 7 9 4 5 - - 0.0
26/09:00am 4.5 2.8 4.0 97 0.2 NNW 2 7 1 4 - - 0.2
26/08:30am 4.1 1.4 3.6 97 0.2 S 7 9 4 5 - - 0.2
26/08:00am 3.2 0.0 3.0 99 0.1 S 9 15 5 8 - - 0.2
26/07:30am 3.1 0.2 2.4 95 0.3 N 7 11 4 6 - - 0.2
26/07:00am 2.8 -0.5 2.3 96 0.2 N 9 13 5 7 - - 0.2
26/06:30am 3.3 0.4 2.6 95 0.3 ENE 7 15 4 8 - - 0.2
26/06:00am 4.0 0.9 3.5 97 0.2 N 9 11 5 6 - - 0.2
26/05:30am 4.5 2.8 3.8 95 0.3 NNW 2 11 1 6 - - 0.2
26/05:00am 5.0 3.4 4.3 95 0.3 N 2 9 1 5 - - 0.2
26/04:30am 5.3 2.4 4.4 94 0.4 NNW 9 13 5 7 - - 0.2
26/04:00am 5.4 3.0 4.5 94 0.4 N 6 9 3 5 - - 0.2
26/03:30am 5.4 2.8 4.2 92 0.5 W 7 9 4 5 - - 0.2
26/03:00am 5.2 2.6 4.3 94 0.4 NW 7 9 4 5 - - 0.2
26/02:30am 5.0 3.8 4.5 97 0.2 CALM 0 0 0 0 - - 0.2
26/02:00am 4.6 2.0 4.1 97 0.2 NNE 7 9 4 5 - - 0.2
26/01:30am 4.4 1.9 3.9 97 0.2 NNE 6 7 3 4 - - 0.2
26/01:00am 4.3 2.9 3.6 95 0.3 CALM 0 0 0 0 - - 0.2
26/12:30am 3.9 2.5 3.4 97 0.2 CALM 0 0 0 0 - - 0.2
26/12:00am 3.6 0.8 3.1 97 0.2 N 7 9 4 5 - - 0.2
 
Date/Time
EST
Temp
°C
App
Temp
°C
Dew
Point
Rel
Hum
%
Delta-T
°C
Wind Press
QNH
hPa
Press
MSL
hPa
Rain
since 9 am
mm
Dir
 
Spd
km/h
Gust
km/h
Spd
kts
Gust
kts
25/11:30pm 3.5 2.0 3.0 97 0.2 CALM 0 0 0 0 - - 0.2
25/11:00pm 2.9 1.3 2.4 96 0.2 CALM 0 0 0 0 - - 0.2
25/10:30pm 2.9 0.0 2.4 96 0.2 N 7 9 4 5 - - 0.2
25/10:00pm 3.5 2.0 3.0 97 0.2 CALM 0 0 0 0 - - 0.2
25/09:30pm 4.1 1.9 3.4 95 0.3 N 4 7 2 4 - - 0.2
25/09:00pm 4.2 2.8 3.5 95 0.3 CALM 0 0 0 0 - - 0.2
25/08:30pm 3.9 2.4 3.2 95 0.3 CALM 0 0 0 0 - - 0.2
25/08:00pm 3.9 0.7 3.2 95 0.3 SSW 9 9 5 5 - - 0.2
25/07:30pm 3.9 1.3 3.2 95 0.3 N 6 7 3 4 - - 0.2
25/07:00pm 4.9 2.4 3.7 92 0.5 NW 6 7 3 4 - - 0.2
25/06:30pm 5.4 2.8 4.2 92 0.5 SSW 7 9 4 5 - - 0.2
25/06:00pm 5.4 4.1 4.0 91 0.6 CALM 0 0 0 0 - - 0.2
25/05:30pm 5.5 4.2 4.1 91 0.6 CALM 0 0 0 0 - - 0.2
25/05:00pm 6.0 4.7 3.9 86 0.9 CALM 0 0 0 0 - - 0.2
25/04:30pm 6.6 5.3 4.1 84 1.1 CALM 0 0 0 0 - - 0.2
25/04:00pm 7.1 5.6 3.1 76 1.7 CALM 0 0 0 0 - - 0.2
25/03:30pm 7.2 5.7 3.0 74 1.8 CALM 0 7 0 4 - - 0.2
25/03:00pm 7.0 4.7 2.7 74 1.8 E 4 7 2 4 - - 0.2
25/02:30pm 6.6 4.7 3.0 78 1.5 ENE 2 6 1 3 - - 0.2
25/02:00pm 6.0 4.1 3.1 82 1.2 WSW 2 7 1 4 - - 0.2
25/01:30pm 5.6 2.9 2.4 80 1.3 S 6 7 3 4 - - 0.2
25/01:00pm 5.3 3.4 2.9 84 1.0 ENE 2 7 1 4 - - 0.2
25/12:30pm 4.7 1.9 2.2 84 1.0 NNE 6 7 3 4 - - 0.2
25/12:00pm 4.3 1.9 2.3 87 0.8 WSW 4 7 2 4 - - 0.2
25/11:30am 4.3 1.4 2.6 89 0.7 NNE 7 11 4 6 - - 0.2
25/11:00am 3.5 0.5 2.3 92 0.5 NE 7 11 4 6 - - 0.2
25/10:30am 3.4 0.4 1.9 90 0.6 N 7 9 4 5 - - 0.2
25/10:00am 2.0 - - - - N 6 9 3 5 - - 0.2
25/09:30am 0.2 - - - - N 7 7 4 4 - - 0.2
25/09:00am -0.4 - - - - N 6 7 3 4 - - 0.0
25/08:30am -0.8 - - - - WNW 6 7 3 4 - - 0.0
25/08:00am -1.0 - - - - SSW 4 7 2 4 - - 0.0
25/07:30am -1.6 - - - - N 9 11 5 6 - - 0.0
25/07:00am -1.4 - - - - NNW 6 7 3 4 - - 0.0
25/06:30am -1.3 - - - - NE 6 7 3 4 - - 0.0
25/06:00am -1.6 - - - - NW 7 11 4 6 - - 0.0
25/05:30am -1.2 - - - - SW 2 9 1 5 - - 0.0
25/05:00am -1.3 - - - - CALM 0 7 0 4 - - 0.0
25/04:30am -1.4 - - - - N 9 11 5 6 - - 0.0
25/04:00am -1.2 - - - - NNW 2 7 1 4 - - 0.0
25/03:30am -1.3 - - - - CALM 0 0 0 0 - - 0.0
25/03:00am -1.3 - - - - CALM 0 0 0 0 - - 0.0
25/02:30am -0.9 - - - - ESE 4 7 2 4 - - 0.0
25/02:00am -0.9 - - - - CALM 0 0 0 0 - - 0.0
25/01:30am -0.6 - - - - CALM 0 0 0 0 - - 0.0
25/01:00am -0.2 - - - - NE 4 7 2 4 - - 0.0
25/12:30am -0.6 - - - - NNE 6 7 3 4 - - 0.0
25/12:00am -0.4 - - - - SW 4 7 2 4 - - 0.0
 
Date/Time
EST
Temp
°C
App
Temp
°C
Dew
Point
Rel
Hum
%
Delta-T
°C
Wind Press
QNH
hPa
Press
MSL
hPa
Rain
since 9 am
mm
Dir
 
Spd
km/h
Gust
km/h
Spd
kts
Gust
kts
24/11:30pm -0.2 - - - - SW 6 9 3 5 - - 0.0
24/11:00pm 0.5 - - - - NW 6 11 3 6 - - 0.0
24/10:30pm 0.5 -3.2 0.1 97 0.1 WSW 9 9 5 5 - - 0.0
24/10:00pm 1.0 -3.1 -0.1 92 0.4 SW 11 15 6 8 - - 0.0
24/09:30pm 1.0 -2.7 0.2 94 0.3 W 9 15 5 8 - - 0.0
24/09:00pm 2.0 -1.2 0.7 91 0.5 W 7 9 4 5 - - 0.0
24/08:30pm 2.5 -0.4 1.2 91 0.5 NNW 6 11 3 6 - - 0.0
24/08:00pm 3.1 0.2 1.6 90 0.6 W 6 9 3 5 - - 0.0
24/07:30pm 3.8 -0.9 1.0 82 1.1 SW 15 19 8 10 - - 0.0
24/07:00pm 4.3 1.3 1.8 84 1.0 WSW 7 11 4 6 - - 0.0
24/06:30pm 5.2 1.9 2.5 83 1.1 WSW 9 11 5 6 - - 0.0
24/06:00pm 5.1 1.8 2.7 84 1.0 WSW 9 13 5 7 - - 0.0
24/05:30pm 5.9 2.0 3.3 83 1.1 SW 13 17 7 9 - - 0.0
24/05:00pm 6.8 4.0 3.3 78 1.5 W 7 11 4 6 - - 0.0
24/04:30pm 7.8 5.8 4.4 79 1.5 WSW 4 9 2 5 - - 0.0
24/04:00pm 9.1 6.9 5.1 76 1.8 NW 6 7 3 4 - - 0.0
24/03:30pm 10.1 7.6 3.5 63 2.9 W 6 9 3 5 - - 0.0
24/03:00pm 10.4 5.7 3.1 60 3.2 S 17 22 9 12 - - 0.0
24/02:30pm 10.1 5.0 3.3 62 3.0 SSW 19 28 10 15 - - 0.0
24/02:00pm 11.5 5.9 3.4 57 3.6 S 22 33 12 18 - - 0.0
24/01:30pm 12.8 7.8 -1.2 38 5.6 SW 15 28 8 15 - - 0.0
24/01:00pm 12.9 8.2 1.0 44 5.0 S 15 20 8 11 - - 0.0
24/12:30pm 12.5 8.9 0.7 44 4.9 SW 9 15 5 8 - - 0.0
24/12:00pm 11.2 6.3 2.2 54 3.9 SSW 17 22 9 12 - - 0.0
24/11:30am 12.6 7.9 2.9 51 4.3 SW 17 32 9 17 - - 0.0
24/11:00am 12.1 7.8 3.4 55 3.9 W 15 30 8 16 - - 0.0
24/10:30am 11.0 7.1 3.3 59 3.4 W 13 30 7 16 - - 0.0
24/10:00am 10.9 7.4 3.5 60 3.3 W 11 19 6 10 - - 0.0
24/09:30am 9.9 6.0 3.5 64 2.8 WNW 13 19 7 10 - - 0.0
24/09:00am 8.8 5.5 4.5 74 1.9 N 11 15 6 8 - - 4.6
24/08:30am 7.0 3.1 3.5 78 1.5 N 13 17 7 9 - - 4.6
24/08:00am 4.8 0.8 2.6 86 0.9 N 13 20 7 11 - - 4.6
24/07:30am 5.2 1.5 2.5 83 1.1 N 11 15 6 8 - - 4.6
24/07:00am 4.5 1.6 2.8 89 0.7 N 7 11 4 6 - - 4.6
24/06:30am 4.6 1.7 2.6 87 0.8 N 7 11 4 6 - - 4.6
24/06:00am 4.6 1.8 2.9 89 0.7 N 7 11 4 6 - - 4.6
24/05:30am 6.4 3.6 2.3 75 1.7 ESE 6 13 3 7 - - 4.6
24/05:00am 5.9 3.1 3.0 82 1.2 NNE 7 11 4 6 - - 4.6
24/04:30am 6.2 3.1 3.6 83 1.1 E 9 13 5 7 - - 4.6
24/04:00am 6.3 3.2 3.7 83 1.1 ENE 9 11 5 6 - - 4.6
24/03:30am 5.8 3.1 3.9 88 0.8 SW 7 17 4 9 - - 4.6
24/03:00am 6.1 3.4 3.8 85 1.0 N 7 9 4 5 - - 4.6
24/02:30am 6.0 3.0 4.1 88 0.8 S 9 15 5 8 - - 4.6
24/02:00am 6.0 3.0 4.1 88 0.8 N 9 13 5 7 - - 4.6
24/01:30am 5.6 3.2 4.2 91 0.6 N 6 9 3 5 - - 4.6
24/01:00am 6.5 4.0 4.7 88 0.8 WSW 7 11 4 6 - - 4.6
24/12:30am 7.4 3.7 4.2 80 1.4 NNW 13 19 7 10 - - 4.6
24/12:00am 6.6 2.5 4.1 84 1.1 N 15 22 8 12 - - 4.6
 
Date/Time
EST
Temp
°C
App
Temp
°C
Dew
Point
Rel
Hum
%
Delta-T
°C
Wind Press
QNH
hPa
Press
MSL
hPa
Rain
since 9 am
mm
Dir
 
Spd
km/h
Gust
km/h
Spd
kts
Gust
kts
23/11:30pm 5.9 2.5 3.8 86 0.9 W 11 19 6 10 - - 4.6
23/11:00pm 4.6 2.8 3.6 93 0.4 N 2 7 1 4 - - 4.6
23/10:30pm 4.7 2.9 3.5 92 0.5 E 2 7 1 4 - - 4.6
23/10:00pm 5.4 2.4 4.0 91 0.6 N 9 13 5 7 - - 4.6
23/09:30pm 5.9 3.4 4.5 91 0.6 ESE 7 9 4 5 - - 4.6
23/09:00pm 5.8 2.4 4.2 89 0.7 NE 11 13 6 7 - - 4.6

Other Formats:

Comma delimited format used in spreadsheet applications
http://www.bom.gov.au/fwo/IDT60801/IDT60801.94964.axf

JavaScript Object Notation format (JSON) in row-major order
http://www.bom.gov.au/fwo/IDT60801/IDT60801.94964.json